createdAt,value
2019-03-28T00:01:58.616Z,25.20
2019-03-28T00:04:27.133Z,25.48
2019-03-28T00:06:55.577Z,31.12
2019-03-28T00:09:24.437Z,25.10
2019-03-28T00:11:52.900Z,28.98
2019-03-28T00:14:21.356Z,27.98
2019-03-28T00:16:49.880Z,28.42
2019-03-28T00:19:18.369Z,26.87
2019-03-28T00:21:47.214Z,26.40
2019-03-28T00:24:17.364Z,24.60
2019-03-28T00:26:45.842Z,26.17
2019-03-28T00:29:14.297Z,26.93
2019-03-28T00:31:43.180Z,26.42
2019-03-28T00:34:11.625Z,23.67
2019-03-28T00:36:40.075Z,27.40
2019-03-28T00:39:08.570Z,25.77
2019-03-28T00:41:37.066Z,26.15
2019-03-28T00:44:05.597Z,26.77
2019-03-28T00:46:34.283Z,25.68
2019-03-28T00:49:02.730Z,25.15
2019-03-28T00:51:31.177Z,25.37
2019-03-28T00:53:59.661Z,27.70
2019-03-28T00:56:28.127Z,26.27
2019-03-28T00:58:56.714Z,28.52
2019-03-28T01:01:25.162Z,27.22
2019-03-28T01:03:53.613Z,30.43
2019-03-28T01:06:22.132Z,29.00
2019-03-28T01:08:50.595Z,28.47
2019-03-28T01:11:19.049Z,33.53
2019-03-28T01:13:47.614Z,28.05
2019-03-28T01:16:16.133Z,29.15
2019-03-28T01:18:45.192Z,28.85
2019-03-28T01:21:13.846Z,29.15
2019-03-28T01:23:42.495Z,29.77
2019-03-28T01:26:11.020Z,30.05
2019-03-28T01:28:39.472Z,28.65
2019-03-28T01:31:08.042Z,30.32
2019-03-28T01:33:36.496Z,27.67
2019-03-28T01:36:04.985Z,29.50
2019-03-28T01:38:33.478Z,30.15
2019-03-28T01:41:01.950Z,30.20
2019-03-28T01:43:30.530Z,28.77
2019-03-28T01:45:59.360Z,27.22
2019-03-28T01:48:27.985Z,27.17
2019-03-28T01:50:56.500Z,25.35
2019-03-28T01:53:24.945Z,25.80
2019-03-28T01:55:53.393Z,24.77
2019-03-28T01:58:21.901Z,24.30
2019-03-28T02:00:50.405Z,26.25
2019-03-28T02:03:18.869Z,27.10
2019-03-28T02:05:47.381Z,25.10
2019-03-28T02:08:15.840Z,23.12
2019-03-28T02:10:44.300Z,24.67
2019-03-28T02:13:12.812Z,21.75
2019-03-28T02:16:05.210Z,23.85
2019-03-28T02:18:34.124Z,20.82
2019-03-28T02:21:02.567Z,19.20
2019-03-28T02:23:31.009Z,22.13
2019-03-28T02:25:59.693Z,21.00
2019-03-28T02:28:28.138Z,22.95
2019-03-28T02:30:56.599Z,22.67
2019-03-28T02:33:25.574Z,19.55
2019-03-28T02:35:54.244Z,20.43
2019-03-28T02:38:22.760Z,21.30
2019-03-28T02:40:51.281Z,22.22
2019-03-28T02:43:19.969Z,18.80
2019-03-28T02:45:48.683Z,20.85
2019-03-28T02:48:17.136Z,19.80
2019-03-28T02:50:45.617Z,21.20
2019-03-28T02:53:14.101Z,22.77
2019-03-28T02:55:42.556Z,21.82
2019-03-28T02:58:11.200Z,18.70
2019-03-28T03:00:39.778Z,21.35
2019-03-28T03:03:08.219Z,20.25
2019-03-28T03:05:36.723Z,21.93
2019-03-28T03:08:05.170Z,23.27
2019-03-28T03:10:33.612Z,21.45
2019-03-28T03:13:02.132Z,22.77
2019-03-28T03:15:30.650Z,21.75
2019-03-28T03:17:59.102Z,22.27
2019-03-28T03:20:27.649Z,23.67
2019-03-28T03:22:56.109Z,22.48
2019-03-28T03:25:24.653Z,22.77
2019-03-28T03:27:58.380Z,23.95
2019-03-28T03:30:23.280Z,25.27
2019-03-28T03:32:51.842Z,25.95
2019-03-28T03:35:20.362Z,25.25
2019-03-28T03:37:48.838Z,24.20
2019-03-28T03:40:17.349Z,23.95
2019-03-28T03:42:45.834Z,21.50
2019-03-28T03:45:14.620Z,22.65
2019-03-28T03:47:43.071Z,23.30
2019-03-28T03:50:14.643Z,26.68
2019-03-28T03:52:43.149Z,29.20
2019-03-28T03:55:11.637Z,27.22
2019-03-28T03:57:40.132Z,27.07
2019-03-28T04:00:09.018Z,24.80
2019-03-28T04:02:37.529Z,21.65
2019-03-28T04:05:06.940Z,26.77
2019-03-28T04:07:35.457Z,25.13
2019-03-28T04:10:05.291Z,24.85
2019-03-28T04:12:33.739Z,27.17
2019-03-28T04:15:02.257Z,26.15
2019-03-28T04:17:30.729Z,24.98
2019-03-28T04:19:59.174Z,27.77
2019-03-28T04:22:27.624Z,26.52
2019-03-28T04:24:56.105Z,28.07
2019-03-28T04:27:24.554Z,26.40
2019-03-28T04:29:53.270Z,26.60
2019-03-28T04:32:21.708Z,26.87
2019-03-28T04:34:50.159Z,26.93
2019-03-28T04:37:18.651Z,28.05
2019-03-28T04:39:47.096Z,26.20
2019-03-28T04:42:15.544Z,30.97
2019-03-28T04:44:44.030Z,28.87
2019-03-28T04:47:12.514Z,27.95
2019-03-28T04:49:40.996Z,26.52
2019-03-28T04:52:09.446Z,26.48
2019-03-28T04:54:38.236Z,26.60
2019-03-28T04:57:06.749Z,22.02
2019-03-28T04:59:35.240Z,25.48
2019-03-28T05:02:05.019Z,23.27
2019-03-28T05:04:33.884Z,25.50
2019-03-28T05:07:02.361Z,27.25
2019-03-28T05:09:30.857Z,24.37
2019-03-28T05:11:59.463Z,27.42
2019-03-28T05:14:28.030Z,24.85
2019-03-28T05:16:56.538Z,28.00
2019-03-28T05:19:24.983Z,29.23
2019-03-28T05:21:53.422Z,27.93
2019-03-28T05:24:21.930Z,27.02
2019-03-28T05:26:50.852Z,30.88
2019-03-28T05:29:19.362Z,29.60
2019-03-28T05:31:47.862Z,25.68
2019-03-28T05:34:16.310Z,25.10
2019-03-28T05:36:44.824Z,26.42
2019-03-28T05:39:13.308Z,29.60
2019-03-28T05:41:41.760Z,26.70
2019-03-28T05:44:10.264Z,31.02
2019-03-28T05:46:38.706Z,30.05
2019-03-28T05:49:07.153Z,26.48
2019-03-28T05:51:35.655Z,31.33
2019-03-28T05:54:04.098Z,26.57
2019-03-28T05:56:32.577Z,29.92
2019-03-28T05:59:10.759Z,23.98
2019-03-28T06:01:32.313Z,27.07
2019-03-28T06:04:20.349Z,28.67
2019-03-28T06:06:48.850Z,24.00
2019-03-28T06:09:17.292Z,26.00
2019-03-28T06:11:45.740Z,24.23
2019-03-28T06:14:14.246Z,24.23
2019-03-28T06:16:42.697Z,24.87
2019-03-28T06:19:11.132Z,24.32
2019-03-28T06:21:39.937Z,26.82
2019-03-28T06:24:08.493Z,22.48
2019-03-28T06:26:36.947Z,23.42
2019-03-28T06:29:08.466Z,25.40
2019-03-28T06:31:36.291Z,24.92
2019-03-28T06:34:04.949Z,21.57
2019-03-28T06:36:33.427Z,22.77
2019-03-28T06:39:01.873Z,23.62
2019-03-28T06:41:30.378Z,20.00
2019-03-28T06:43:58.968Z,23.45
2019-03-28T06:46:28.000Z,22.35
2019-03-28T06:48:56.588Z,21.85
2019-03-28T06:51:25.107Z,20.85
2019-03-28T06:53:53.545Z,21.82
2019-03-28T06:56:25.266Z,19.90
2019-03-28T07:01:20.203Z,21.40
2019-03-28T07:03:48.737Z,21.60
2019-03-28T07:06:17.245Z,18.42
2019-03-28T07:08:45.701Z,19.30
2019-03-28T07:11:14.198Z,16.02
2019-03-28T07:13:42.645Z,18.05
2019-03-28T07:16:11.092Z,18.40
2019-03-28T07:18:39.576Z,17.40
2019-03-28T07:21:08.027Z,18.02
2019-03-28T07:23:36.517Z,20.72
2019-03-28T07:26:04.960Z,15.98
2019-03-28T07:28:33.619Z,17.30
2019-03-28T07:31:02.362Z,14.83
2019-03-28T07:33:31.063Z,17.48
2019-03-28T07:35:59.615Z,21.20
2019-03-28T07:38:28.057Z,16.45
2019-03-28T07:40:56.503Z,17.98
2019-03-28T07:43:25.274Z,15.25
2019-03-28T07:45:54.009Z,15.30
2019-03-28T07:48:22.520Z,13.45
2019-03-28T07:50:50.973Z,17.48
2019-03-28T07:53:19.943Z,14.13
2019-03-28T07:55:49.228Z,14.20
2019-03-28T07:58:17.673Z,13.95
2019-03-28T08:00:46.113Z,11.33
2019-03-28T08:03:14.589Z,13.25
2019-03-28T08:05:43.037Z,14.13
2019-03-28T08:08:11.550Z,11.50
2019-03-28T08:10:39.984Z,14.95
2019-03-28T08:13:08.439Z,11.73
2019-03-28T08:15:37.016Z,12.93
2019-03-28T08:18:05.470Z,13.18
2019-03-28T08:20:33.917Z,14.58
2019-03-28T08:23:02.615Z,14.43
2019-03-28T08:25:31.063Z,12.07
2019-03-28T08:27:59.520Z,12.15
2019-03-28T08:30:38.623Z,14.35
2019-03-28T08:33:07.821Z,16.23
2019-03-28T08:35:38.008Z,11.50
2019-03-28T08:38:10.081Z,9.35
2019-03-28T08:40:41.867Z,12.93
2019-03-28T08:43:10.622Z,9.33
2019-03-28T08:45:39.071Z,8.38
2019-03-28T08:48:07.858Z,9.75
2019-03-28T08:50:36.405Z,9.10
2019-03-28T08:53:05.085Z,9.60
2019-03-28T08:55:33.583Z,10.03
2019-03-28T08:58:02.105Z,9.28
2019-03-28T09:00:35.180Z,9.85
2019-03-28T09:03:01.169Z,8.58
2019-03-28T09:05:29.614Z,9.83
2019-03-28T09:07:58.065Z,10.32
2019-03-28T09:10:26.562Z,8.28
2019-03-28T09:12:55.017Z,11.38
2019-03-28T09:15:23.458Z,7.87
2019-03-28T09:17:51.947Z,10.15
2019-03-28T09:20:20.697Z,9.08
2019-03-28T09:22:49.189Z,10.03
2019-03-28T09:25:17.625Z,9.35
2019-03-28T09:27:46.361Z,10.78
2019-03-28T09:30:16.614Z,9.35
2019-03-28T09:32:45.129Z,8.83
2019-03-28T09:35:16.729Z,7.15
2019-03-28T09:37:45.180Z,10.38
2019-03-28T09:40:13.788Z,7.75
2019-03-28T09:42:42.261Z,8.00
2019-03-28T09:45:10.977Z,9.43
2019-03-28T09:47:39.660Z,8.50
2019-03-28T09:50:08.540Z,8.90
2019-03-28T09:52:36.979Z,8.18
2019-03-28T09:55:06.892Z,9.33
2019-03-28T09:57:35.346Z,9.05
2019-03-28T10:00:06.634Z,8.08
2019-03-28T10:02:35.110Z,9.13
2019-03-28T10:05:08.630Z,9.53
2019-03-28T10:07:38.612Z,9.18
2019-03-28T10:10:09.309Z,7.33
2019-03-28T10:12:37.963Z,5.85
2019-03-28T10:15:07.383Z,6.67
2019-03-28T10:17:35.825Z,6.27
2019-03-28T10:20:06.070Z,7.20
2019-03-28T10:22:34.521Z,5.53
2019-03-28T10:25:02.966Z,5.80
2019-03-28T10:27:31.441Z,8.15
2019-03-28T10:29:59.937Z,6.40
2019-03-28T10:32:28.570Z,5.50
2019-03-28T10:34:57.013Z,6.17
2019-03-28T10:37:25.519Z,5.92
2019-03-28T10:39:54.035Z,7.53
2019-03-28T10:42:22.480Z,6.03
2019-03-28T10:44:50.972Z,3.95
2019-03-28T10:47:19.426Z,3.45
2019-03-28T10:49:47.871Z,4.42
2019-03-28T10:52:16.373Z,4.08
2019-03-28T10:54:44.817Z,4.47
2019-03-28T10:57:23.959Z,4.78
2019-03-28T10:59:43.492Z,4.37
2019-03-28T11:02:12.625Z,4.75
2019-03-28T11:04:41.226Z,5.12
2019-03-28T11:07:09.895Z,4.80
2019-03-28T11:09:38.333Z,6.62
2019-03-28T11:12:06.782Z,6.15
2019-03-28T11:14:35.258Z,6.67
2019-03-28T11:17:03.737Z,7.60
2019-03-28T11:19:32.187Z,6.70
2019-03-28T11:22:00.939Z,8.00
2019-03-28T11:24:29.381Z,5.65
2019-03-28T11:26:57.913Z,5.12
2019-03-28T11:29:26.487Z,5.15
2019-03-28T11:31:54.922Z,5.30
2019-03-28T11:34:23.421Z,5.25
2019-03-28T11:36:52.033Z,5.25
2019-03-28T11:39:20.948Z,5.97
2019-03-28T11:41:49.725Z,5.65
2019-03-28T11:44:18.177Z,5.67
2019-03-28T11:46:46.626Z,5.80
2019-03-28T11:49:15.102Z,7.85
2019-03-28T11:51:43.610Z,5.92
2019-03-28T11:54:12.046Z,6.62
2019-03-28T11:56:40.489Z,9.30
2019-03-28T11:59:08.974Z,6.20
2019-03-28T12:01:37.444Z,7.58
2019-03-28T12:04:05.894Z,8.28
2019-03-28T12:06:34.474Z,6.75
2019-03-28T12:09:02.930Z,7.60
2019-03-28T12:11:31.450Z,10.15
2019-03-28T12:14:00.152Z,9.73
2019-03-28T12:16:28.605Z,10.25
2019-03-28T12:18:57.051Z,7.62
2019-03-28T12:21:25.811Z,11.33
2019-03-28T12:23:54.313Z,10.95
2019-03-28T12:26:22.756Z,10.32
2019-03-28T12:28:51.254Z,8.05
2019-03-28T12:31:19.758Z,7.53
2019-03-28T12:33:48.247Z,9.48
2019-03-28T12:36:16.691Z,12.18
2019-03-28T12:38:45.174Z,9.58
2019-03-28T12:41:13.676Z,10.32
2019-03-28T12:43:42.133Z,9.30
2019-03-28T12:46:10.568Z,9.03
2019-03-28T12:48:39.069Z,9.18
2019-03-28T12:51:07.513Z,6.65
2019-03-28T12:53:36.583Z,6.80
2019-03-28T12:56:05.430Z,6.62
2019-03-28T12:58:33.879Z,8.00
2019-03-28T13:01:02.404Z,8.03
2019-03-28T13:03:44.471Z,5.83
2019-03-28T13:06:01.065Z,6.22
2019-03-28T13:08:29.526Z,5.90
2019-03-28T13:10:58.032Z,6.37
2019-03-28T13:13:26.478Z,9.28
2019-03-28T13:15:54.913Z,8.43
2019-03-28T13:18:23.420Z,7.85
2019-03-28T13:20:51.869Z,8.15
2019-03-28T13:23:20.315Z,9.38
2019-03-28T13:25:48.993Z,9.10
2019-03-28T13:28:17.446Z,8.65
2019-03-28T13:30:45.953Z,9.60
2019-03-28T13:33:14.473Z,10.48
2019-03-28T13:35:42.916Z,10.68
2019-03-28T13:38:11.364Z,9.68
2019-03-28T13:40:39.841Z,9.38
2019-03-28T13:43:08.465Z,8.48
2019-03-28T13:45:36.905Z,7.78
2019-03-28T13:48:05.390Z,10.38
2019-03-28T13:50:33.838Z,8.13
2019-03-28T13:53:02.317Z,8.53
2019-03-28T13:55:30.816Z,9.48
2019-03-28T13:57:59.611Z,9.98
2019-03-28T14:00:32.574Z,9.08
2019-03-28T14:03:01.026Z,10.32
2019-03-28T14:05:30.108Z,6.30
2019-03-28T14:07:58.555Z,6.97
2019-03-28T14:10:27.010Z,7.15
2019-03-28T14:12:55.537Z,6.37
2019-03-28T14:15:23.981Z,6.42
2019-03-28T14:17:52.429Z,8.25
2019-03-28T14:20:22.337Z,8.65
2019-03-28T14:22:51.187Z,9.15
2019-03-28T14:25:19.638Z,7.15
2019-03-28T14:27:48.147Z,7.40
2019-03-28T14:30:16.959Z,8.03
2019-03-28T14:32:53.007Z,5.17
2019-03-28T14:35:15.632Z,3.75
2019-03-28T14:37:44.077Z,5.47
2019-03-28T14:40:12.767Z,5.00
2019-03-28T14:42:41.304Z,3.60
2019-03-28T14:45:10.033Z,5.67
2019-03-28T14:47:38.549Z,4.00
2019-03-28T14:50:08.882Z,4.87
2019-03-28T14:55:05.717Z,3.55
2019-03-28T14:57:34.331Z,5.22
2019-03-28T15:00:04.458Z,5.45
2019-03-28T15:02:32.910Z,5.67
2019-03-28T15:05:01.411Z,7.65
2019-03-28T15:07:29.850Z,7.40
2019-03-28T15:09:58.293Z,5.97
2019-03-28T15:12:26.764Z,3.98
2019-03-28T15:14:55.234Z,4.55
2019-03-28T15:17:23.781Z,6.03
2019-03-28T15:19:52.242Z,5.83
2019-03-28T15:22:20.727Z,7.03
2019-03-28T15:24:49.166Z,8.00
2019-03-28T15:27:17.643Z,6.28
2019-03-28T15:29:46.087Z,9.45
2019-03-28T15:32:14.591Z,8.48
2019-03-28T15:34:43.041Z,8.70
2019-03-28T15:37:11.480Z,9.05
2019-03-28T15:39:40.315Z,6.90
2019-03-28T15:42:08.802Z,7.17
2019-03-28T15:44:39.334Z,6.25
2019-03-28T15:47:07.481Z,6.28
2019-03-28T15:49:35.929Z,7.58
2019-03-28T15:52:05.204Z,6.37
2019-03-28T15:54:34.051Z,6.33
2019-03-28T15:57:02.591Z,5.62
2019-03-28T15:59:31.101Z,6.70
2019-03-28T16:02:00.000Z,9.05
2019-03-28T16:04:28.668Z,11.80
2019-03-28T16:06:57.172Z,11.95
2019-03-28T16:09:25.646Z,8.65
2019-03-28T16:12:02.442Z,53.90
2019-03-28T16:14:24.398Z,11.65
2019-03-28T16:16:53.121Z,36.60
2019-03-28T16:19:21.628Z,24.77
2019-03-28T16:21:50.391Z,10.95
2019-03-28T16:24:18.946Z,31.17
2019-03-28T16:26:47.393Z,10.18
2019-03-28T16:29:15.881Z,101.92
2019-03-28T16:31:44.633Z,17.98
2019-03-28T16:34:13.078Z,16.05
2019-03-28T16:36:41.530Z,17.02
2019-03-28T17:03:09.087Z,5.25
2019-03-28T17:05:37.595Z,6.65
2019-03-28T17:08:06.342Z,7.60
2019-03-28T17:10:46.188Z,6.60
2019-03-28T17:13:15.448Z,7.22
2019-03-28T17:15:44.162Z,7.87
2019-03-28T17:18:13.241Z,9.15
2019-03-28T17:20:41.965Z,8.03
2019-03-28T17:23:10.666Z,8.10
2019-03-28T17:25:39.161Z,9.05
2019-03-28T17:28:07.729Z,8.33
2019-03-28T17:30:36.169Z,8.75
2019-03-28T17:33:05.255Z,8.83
2019-03-28T17:35:34.413Z,9.28
2019-03-28T17:38:02.866Z,13.60
2019-03-28T17:40:31.392Z,9.70
2019-03-28T17:42:59.948Z,10.70
2019-03-28T17:45:28.390Z,11.90
2019-03-28T17:47:56.882Z,11.97
2019-03-28T17:50:25.329Z,17.40
2019-03-28T17:52:54.023Z,12.90
2019-03-28T17:55:22.463Z,10.68
2019-03-28T17:57:50.917Z,12.18
2019-03-28T18:00:19.682Z,11.15
2019-03-28T18:02:48.128Z,9.78
2019-03-28T18:05:16.854Z,10.03
2019-03-28T18:07:45.376Z,10.68
2019-03-28T18:10:14.257Z,24.35
2019-03-28T18:12:42.773Z,14.13
2019-03-28T18:15:11.654Z,12.20
2019-03-28T18:17:40.106Z,10.15
2019-03-28T18:20:09.426Z,11.38
2019-03-28T18:22:37.885Z,15.00
2019-03-28T18:25:07.888Z,12.53
2019-03-28T18:27:36.556Z,9.18
2019-03-28T18:30:07.139Z,12.43
2019-03-28T18:32:35.618Z,11.70
2019-03-28T18:35:08.544Z,9.30
2019-03-28T18:37:37.144Z,12.20
2019-03-28T18:40:07.423Z,10.60
2019-03-28T18:42:35.876Z,11.08
2019-03-28T18:45:06.446Z,11.28
2019-03-28T18:47:34.876Z,11.18
2019-03-28T18:50:04.260Z,18.25
2019-03-28T18:52:33.627Z,17.80
2019-03-28T18:55:02.219Z,13.60
2019-03-28T18:57:32.056Z,15.65
2019-03-28T19:00:00.621Z,11.38
2019-03-28T19:02:29.071Z,13.50
2019-03-28T19:04:58.091Z,12.63
2019-03-28T19:07:26.612Z,12.03
2019-03-28T19:09:55.051Z,14.60
2019-03-28T19:12:23.504Z,12.35
2019-03-28T19:14:52.159Z,8.45
2019-03-28T19:17:20.604Z,8.85
2019-03-28T19:19:49.101Z,9.15
2019-03-28T19:22:17.608Z,9.35
2019-03-28T19:24:46.109Z,8.75
2019-03-28T19:27:14.562Z,8.60
2019-03-28T19:29:43.077Z,11.73
2019-03-28T19:32:11.590Z,7.42
2019-03-28T19:34:40.045Z,6.78
2019-03-28T19:37:08.799Z,6.92
2019-03-28T19:39:37.528Z,8.03
2019-03-28T19:42:05.982Z,7.67
2019-03-28T19:44:34.413Z,6.47
2019-03-28T19:47:03.188Z,5.58
2019-03-28T19:49:31.641Z,5.33
2019-03-28T19:52:00.298Z,8.15
2019-03-28T19:54:28.953Z,6.92
2019-03-28T19:56:57.559Z,6.55
2019-03-28T19:59:26.218Z,6.83
2019-03-28T20:01:54.870Z,7.92
2019-03-28T20:04:23.381Z,6.15
2019-03-28T20:06:51.894Z,5.53
2019-03-28T20:09:20.344Z,7.37
2019-03-28T20:11:48.790Z,6.62
2019-03-28T20:14:17.547Z,5.90
2019-03-28T20:16:45.980Z,5.55
2019-03-28T20:19:17.656Z,7.47
2019-03-28T20:21:44.631Z,6.75
2019-03-28T20:24:13.175Z,9.30
2019-03-28T20:26:41.724Z,6.20
2019-03-28T20:29:10.246Z,6.28
2019-03-28T20:31:39.003Z,7.50
2019-03-28T20:34:10.850Z,5.47
2019-03-28T20:36:43.714Z,6.65
2019-03-28T20:39:11.737Z,8.58
2019-03-28T20:41:59.638Z,8.35
2019-03-28T20:44:28.349Z,9.05
2019-03-28T20:46:58.682Z,6.70
2019-03-28T20:49:26.962Z,7.95
2019-03-28T20:51:55.451Z,7.05
2019-03-28T20:54:23.896Z,7.55
2019-03-28T20:56:52.332Z,8.83
2019-03-28T20:59:20.958Z,10.30
2019-03-28T21:01:49.425Z,11.43
2019-03-28T21:04:30.666Z,8.20
2019-03-28T21:06:48.175Z,9.95
2019-03-28T21:09:16.621Z,18.05
2019-03-28T21:11:45.133Z,14.53
2019-03-28T21:14:13.580Z,12.50
2019-03-28T21:16:42.031Z,27.87
2019-03-28T21:19:10.526Z,11.43
2019-03-28T21:21:38.960Z,23.45
2019-03-28T21:24:07.418Z,34.73
2019-03-28T21:26:36.186Z,15.53
2019-03-28T21:29:04.697Z,11.60
2019-03-28T21:31:33.142Z,14.98
2019-03-28T21:34:01.890Z,14.20
2019-03-28T21:36:30.629Z,15.28
2019-03-28T21:39:00.075Z,17.23
2019-03-28T21:41:28.662Z,15.88
2019-03-28T21:43:57.141Z,11.95
2019-03-28T21:46:25.629Z,12.68
2019-03-28T21:48:54.126Z,16.73
2019-03-28T21:51:22.706Z,11.73
2019-03-28T21:53:51.161Z,21.42
2019-03-28T21:56:19.601Z,14.18
2019-03-28T21:58:48.262Z,10.60
2019-03-28T22:01:16.782Z,12.05
2019-03-28T22:03:45.230Z,13.60
2019-03-28T22:06:13.718Z,14.78
2019-03-28T22:08:42.152Z,11.60
2019-03-28T22:11:10.642Z,16.30
2019-03-28T22:13:39.087Z,14.07
2019-03-28T22:16:07.890Z,11.43
2019-03-28T22:18:36.526Z,13.28
2019-03-28T22:21:04.973Z,10.80
2019-03-28T22:23:33.445Z,9.28
2019-03-28T22:26:01.934Z,9.25
2019-03-28T22:28:30.520Z,15.13
2019-03-28T22:30:58.957Z,14.15
2019-03-28T22:33:27.484Z,11.57
2019-03-28T22:35:55.986Z,10.48
2019-03-28T22:38:24.428Z,9.63
2019-03-28T22:44:22.242Z,11.70
2019-03-28T22:46:50.880Z,9.25
2019-03-28T22:49:19.408Z,11.28
2019-03-28T22:51:47.911Z,11.80
2019-03-28T22:54:16.353Z,10.82
2019-03-28T22:56:44.797Z,12.88
2019-03-28T22:59:13.285Z,12.50
2019-03-28T23:01:41.721Z,13.58
2019-03-28T23:04:10.230Z,13.45
2019-03-28T23:06:38.665Z,13.13
2019-03-28T23:09:07.575Z,13.48
2019-03-28T23:11:36.096Z,10.93
2019-03-28T23:14:04.769Z,12.93
2019-03-28T23:16:33.217Z,14.90
2019-03-28T23:19:02.280Z,15.38
2019-03-28T23:21:30.726Z,11.70
2019-03-28T23:23:59.161Z,12.58
2019-03-28T23:26:27.640Z,19.05
2019-03-28T23:28:56.146Z,13.43
2019-03-28T23:31:24.662Z,13.03
2019-03-28T23:33:53.105Z,10.72
2019-03-28T23:36:21.636Z,13.40
2019-03-28T23:38:50.077Z,12.82
2019-03-28T23:41:18.648Z,14.45
2019-03-28T23:43:47.201Z,13.10
2019-03-28T23:46:15.734Z,18.12
2019-03-28T23:48:44.183Z,15.78
2019-03-28T23:51:12.679Z,13.68
2019-03-28T23:53:41.127Z,16.20
2019-03-28T23:56:10.762Z,16.57
2019-03-28T23:58:39.368Z,19.02
